createdAt,value
2023-03-06T00:02:07.933Z,11.20
2023-03-06T00:04:36.496Z,10.10
2023-03-06T00:07:04.386Z,10.27
2023-03-06T00:09:32.357Z,10.47
2023-03-06T00:11:59.987Z,11.37
2023-03-06T00:14:28.480Z,10.87
2023-03-06T00:16:57.616Z,7.50
2023-03-06T00:19:25.549Z,9.47
2023-03-06T00:22:15.099Z,8.60
2023-03-06T00:24:43.354Z,11.33
2023-03-06T00:27:11.301Z,8.60
2023-03-06T00:29:38.923Z,9.33
2023-03-06T00:32:09.379Z,9.03
2023-03-06T00:34:37.012Z,8.13
2023-03-06T00:37:05.324Z,10.00
2023-03-06T00:39:33.857Z,9.30
2023-03-06T00:42:02.284Z,10.50
2023-03-06T00:44:29.874Z,11.30
2023-03-06T00:46:57.666Z,11.63
2023-03-06T00:49:26.607Z,10.67
2023-03-06T00:51:55.244Z,11.73
2023-03-06T00:54:22.887Z,9.20
2023-03-06T00:56:51.149Z,9.40
2023-03-06T00:59:18.872Z,11.10
2023-03-06T01:01:46.746Z,8.77
2023-03-06T01:04:14.793Z,15.27
2023-03-06T01:06:44.553Z,10.87
2023-03-06T01:09:12.198Z,8.53
2023-03-06T01:11:39.881Z,9.60
2023-03-06T01:14:07.599Z,10.03
2023-03-06T01:16:35.430Z,13.20
2023-03-06T01:19:03.098Z,9.77
2023-03-06T01:21:31.151Z,12.20
2023-03-06T01:24:00.958Z,13.33
2023-03-06T01:26:29.138Z,9.50
2023-03-06T01:28:57.388Z,14.80
2023-03-06T01:31:26.178Z,11.43
2023-03-06T01:33:53.766Z,13.33
2023-03-06T01:36:22.077Z,14.43
2023-03-06T01:38:49.703Z,13.90
2023-03-06T01:41:21.166Z,11.47
2023-03-06T01:43:48.819Z,14.60
2023-03-06T01:46:39.045Z,17.27
2023-03-06T01:49:12.295Z,16.67
2023-03-06T01:51:45.080Z,10.87
2023-03-06T01:54:15.627Z,13.90
2023-03-06T01:56:47.878Z,15.03
2023-03-06T01:59:15.987Z,14.27
2023-03-06T02:01:45.403Z,8.93
2023-03-06T02:04:15.507Z,14.73
2023-03-06T02:06:44.507Z,9.97
2023-03-06T02:09:13.898Z,14.43
2023-03-06T02:11:44.440Z,10.93
2023-03-06T02:14:16.101Z,13.23
2023-03-06T02:16:45.824Z,12.57
2023-03-06T02:19:27.517Z,10.93
2023-03-06T02:21:55.517Z,12.67
2023-03-06T02:24:33.098Z,10.57
2023-03-06T02:27:05.155Z,14.30
2023-03-06T02:29:32.963Z,14.00
2023-03-06T02:32:03.986Z,14.33
2023-03-06T02:34:52.648Z,10.90
2023-03-06T02:37:22.157Z,11.23
2023-03-06T02:39:57.486Z,13.70
2023-03-06T02:42:29.719Z,11.90
2023-03-06T02:45:00.608Z,12.60
2023-03-06T02:47:28.592Z,15.73
2023-03-06T02:49:56.176Z,13.10
2023-03-06T02:52:24.179Z,12.53
2023-03-06T02:54:51.768Z,11.13
2023-03-06T02:57:20.424Z,11.77
2023-03-06T02:59:49.421Z,9.67
2023-03-06T03:02:17.296Z,11.67
2023-03-06T03:04:46.411Z,13.90
2023-03-06T03:07:14.369Z,13.47
2023-03-06T03:09:43.318Z,13.30
2023-03-06T03:12:11.839Z,10.63
2023-03-06T03:14:40.221Z,9.40
2023-03-06T03:17:09.175Z,12.50
2023-03-06T03:19:37.517Z,16.67
2023-03-06T03:22:07.703Z,10.90
2023-03-06T03:24:35.898Z,10.73
2023-03-06T03:27:04.159Z,12.57
2023-03-06T03:29:32.667Z,13.10
2023-03-06T03:32:00.758Z,13.27
2023-03-06T03:34:30.501Z,12.50
2023-03-06T03:36:58.515Z,11.67
2023-03-06T03:39:26.225Z,14.97
2023-03-06T03:41:53.925Z,11.67
2023-03-06T03:44:22.197Z,11.50
2023-03-06T03:46:50.063Z,15.77
2023-03-06T03:49:22.209Z,16.37
2023-03-06T03:51:52.689Z,13.67
2023-03-06T03:54:21.755Z,10.63
2023-03-06T03:56:51.063Z,14.07
2023-03-06T03:59:25.555Z,18.43
2023-03-06T04:02:05.402Z,12.33
2023-03-06T04:04:39.804Z,14.70
2023-03-06T04:07:10.240Z,12.90
2023-03-06T04:09:40.651Z,10.83
2023-03-06T04:12:09.743Z,13.60
2023-03-06T04:14:38.712Z,15.87
2023-03-06T04:17:06.897Z,11.40
2023-03-06T04:19:35.640Z,12.17
2023-03-06T04:22:03.277Z,11.53
2023-03-06T04:24:35.409Z,12.27
2023-03-06T04:27:03.536Z,13.80
2023-03-06T04:29:31.863Z,15.53
2023-03-06T04:31:59.583Z,10.20
2023-03-06T04:34:28.212Z,11.80
2023-03-06T04:36:56.375Z,9.63
2023-03-06T04:39:24.840Z,15.97
2023-03-06T04:41:53.781Z,13.10
2023-03-06T04:44:21.928Z,12.63
2023-03-06T04:46:49.538Z,13.37
2023-03-06T04:49:17.143Z,13.83
2023-03-06T04:51:44.728Z,11.67
2023-03-06T04:54:12.585Z,11.87
2023-03-06T04:56:40.358Z,13.37
2023-03-06T04:59:10.044Z,14.23
2023-03-06T05:01:37.739Z,11.07
2023-03-06T05:04:05.958Z,14.30
2023-03-06T05:06:33.701Z,13.70
2023-03-06T05:09:01.306Z,8.70
2023-03-06T05:11:29.245Z,12.73
2023-03-06T05:13:56.829Z,15.13
2023-03-06T05:16:25.899Z,14.27
2023-03-06T05:18:53.530Z,15.57
2023-03-06T05:21:21.468Z,16.40
2023-03-06T05:23:49.376Z,11.73
2023-03-06T05:26:17.204Z,13.70
2023-03-06T05:28:45.124Z,13.87
2023-03-06T05:31:13.205Z,13.87
2023-03-06T05:33:42.227Z,13.70
2023-03-06T05:36:11.061Z,18.50
2023-03-06T05:38:38.851Z,16.80
2023-03-06T05:41:06.867Z,15.20
2023-03-06T05:43:34.443Z,14.13
2023-03-06T05:46:03.393Z,17.10
2023-03-06T05:48:31.293Z,15.00
2023-03-06T05:51:01.828Z,13.67
2023-03-06T05:53:29.929Z,11.80
2023-03-06T05:55:59.091Z,16.03
2023-03-06T05:58:26.841Z,14.80
2023-03-06T06:00:54.904Z,18.63
2023-03-06T06:03:23.111Z,11.93
2023-03-06T06:05:52.004Z,14.80
2023-03-06T06:08:21.593Z,16.43
2023-03-06T06:10:52.194Z,19.80
2023-03-06T06:13:20.808Z,18.17
2023-03-06T06:15:49.341Z,17.27
2023-03-06T06:18:17.201Z,13.13
2023-03-06T06:20:45.578Z,11.73
2023-03-06T06:23:13.207Z,18.17
2023-03-06T06:25:43.030Z,18.07
2023-03-06T06:28:12.312Z,13.70
2023-03-06T06:30:40.325Z,14.17
2023-03-06T06:33:08.254Z,12.70
2023-03-06T06:35:37.834Z,13.53
2023-03-06T06:38:05.778Z,13.90
2023-03-06T06:40:33.426Z,13.40
2023-03-06T06:43:02.426Z,16.37
2023-03-06T06:45:30.074Z,13.30
2023-03-06T06:47:58.332Z,13.10
2023-03-06T06:50:26.370Z,14.37
2023-03-06T06:52:53.962Z,17.07
2023-03-06T06:55:21.631Z,15.33
2023-03-06T06:57:49.220Z,17.30
2023-03-06T07:00:19.850Z,15.33
2023-03-06T07:02:49.277Z,13.37
2023-03-06T07:05:17.253Z,12.53
2023-03-06T07:07:46.659Z,16.67
2023-03-06T07:10:17.190Z,15.50
2023-03-06T07:12:46.122Z,15.00
2023-03-06T07:15:16.105Z,17.93
2023-03-06T07:17:45.830Z,16.20
2023-03-06T07:20:14.292Z,15.80
2023-03-06T07:22:50.733Z,13.57
2023-03-06T07:25:19.795Z,15.13
2023-03-06T07:27:53.286Z,15.63
2023-03-06T07:30:22.774Z,11.83
2023-03-06T07:32:55.607Z,19.47
2023-03-06T07:35:24.269Z,15.40
2023-03-06T07:37:52.191Z,18.23
2023-03-06T07:40:21.713Z,15.70
2023-03-06T07:42:49.998Z,15.43
2023-03-06T07:45:25.456Z,16.80
2023-03-06T07:47:55.725Z,15.70
2023-03-06T07:50:23.649Z,16.70
2023-03-06T07:52:51.607Z,17.27
2023-03-06T07:55:19.364Z,13.93
2023-03-06T07:57:47.317Z,16.43
2023-03-06T08:00:16.928Z,14.50
2023-03-06T08:02:44.966Z,15.73
2023-03-06T08:05:17.722Z,17.10
2023-03-06T08:07:46.370Z,13.27
2023-03-06T08:10:15.944Z,15.43
2023-03-06T08:12:44.376Z,19.93
2023-03-06T08:15:13.722Z,16.13
2023-03-06T08:17:41.867Z,14.47
2023-03-06T08:20:11.277Z,21.90
2023-03-06T08:22:40.206Z,18.27
2023-03-06T08:25:09.304Z,13.40
2023-03-06T08:27:37.442Z,15.43
2023-03-06T08:30:06.129Z,14.87
2023-03-06T08:32:36.210Z,13.47
2023-03-06T08:35:04.760Z,14.17
2023-03-06T08:37:32.363Z,16.97
2023-03-06T08:40:02.958Z,15.60
2023-03-06T08:42:30.737Z,13.63
2023-03-06T08:44:58.753Z,12.33
2023-03-06T08:47:26.369Z,12.20
2023-03-06T08:49:54.294Z,15.07
2023-03-06T08:52:21.880Z,16.37
2023-03-06T08:54:49.528Z,14.57
2023-03-06T08:57:18.466Z,15.33
2023-03-06T08:59:46.440Z,14.47
2023-03-06T09:02:15.222Z,16.10
2023-03-06T09:04:43.597Z,17.37
2023-03-06T09:07:11.184Z,12.90
2023-03-06T09:09:39.443Z,14.87
2023-03-06T09:12:07.448Z,13.70
2023-03-06T09:14:36.564Z,15.07
2023-03-06T09:17:04.201Z,18.43
2023-03-06T09:19:32.560Z,20.20
2023-03-06T09:22:00.996Z,14.93
2023-03-06T09:24:29.358Z,16.00
2023-03-06T09:26:57.488Z,15.17
2023-03-06T09:29:25.415Z,16.10
2023-03-06T09:31:54.455Z,13.50
2023-03-06T09:34:22.085Z,15.17
2023-03-06T09:36:56.673Z,14.57
2023-03-06T09:39:26.288Z,14.20
2023-03-06T09:41:54.877Z,16.53
2023-03-06T09:44:26.053Z,14.43
2023-03-06T09:47:27.419Z,13.67
2023-03-06T09:50:08.920Z,16.80
2023-03-06T09:52:46.904Z,14.67
2023-03-06T09:55:19.419Z,17.83
2023-03-06T09:57:55.564Z,18.47
2023-03-06T10:00:27.888Z,14.00
2023-03-06T10:03:08.784Z,17.93
2023-03-06T10:05:42.572Z,15.37
2023-03-06T10:08:22.581Z,13.43
2023-03-06T10:10:54.892Z,13.70
2023-03-06T10:13:29.055Z,13.87
2023-03-06T10:16:05.924Z,13.13
2023-03-06T10:18:38.353Z,13.47
2023-03-06T10:21:19.692Z,15.60
2023-03-06T10:23:53.537Z,13.80
2023-03-06T10:26:25.644Z,12.40
2023-03-06T10:29:03.275Z,16.40
2023-03-06T10:31:31.246Z,12.93
2023-03-06T10:34:16.304Z,11.33
2023-03-06T10:36:44.777Z,14.47
2023-03-06T10:39:17.069Z,13.93
2023-03-06T10:41:46.275Z,11.73
2023-03-06T10:44:23.400Z,12.43
2023-03-06T10:46:54.044Z,10.13
2023-03-06T10:49:32.656Z,16.33
2023-03-06T10:52:05.364Z,11.97
2023-03-06T10:54:35.169Z,14.37
2023-03-06T10:57:21.074Z,13.13
2023-03-06T10:59:54.530Z,15.30
2023-03-06T11:02:27.648Z,10.93
2023-03-06T11:04:59.146Z,10.80
2023-03-06T11:07:28.429Z,10.70
2023-03-06T11:10:18.961Z,9.83
2023-03-06T11:12:58.549Z,15.07
2023-03-06T11:15:27.116Z,10.17
2023-03-06T11:17:58.816Z,11.77
2023-03-06T11:20:44.880Z,11.17
2023-03-06T11:23:20.432Z,10.53
2023-03-06T11:25:51.312Z,13.50
2023-03-06T11:28:23.735Z,16.47
2023-03-06T11:30:55.504Z,10.77
2023-03-06T11:33:29.854Z,12.67
2023-03-06T11:36:03.497Z,10.07
2023-03-06T11:38:39.835Z,10.70
2023-03-06T11:41:19.388Z,8.17
2023-03-06T11:43:55.775Z,10.43
2023-03-06T11:46:28.725Z,17.43
2023-03-06T11:49:02.347Z,15.57
2023-03-06T11:51:36.279Z,7.30
2023-03-06T11:54:04.031Z,11.57
2023-03-06T11:56:36.597Z,8.73
2023-03-06T11:59:26.709Z,9.37
2023-03-06T12:02:02.791Z,11.30
2023-03-06T12:04:46.748Z,10.37
2023-03-06T12:07:23.589Z,9.80
2023-03-06T12:09:57.752Z,10.80
2023-03-06T12:12:56.028Z,8.67
2023-03-06T12:15:36.562Z,8.53
2023-03-06T12:18:20.718Z,9.27
2023-03-06T12:20:56.329Z,9.20
2023-03-06T12:23:41.746Z,7.60
2023-03-06T12:26:26.820Z,7.23
2023-03-06T12:29:13.275Z,9.07
2023-03-06T12:31:50.285Z,8.07
2023-03-06T12:34:38.890Z,9.13
2023-03-06T12:37:18.248Z,9.27
2023-03-06T12:40:09.885Z,10.03
2023-03-06T12:43:02.221Z,9.33
2023-03-06T12:45:33.236Z,9.33
2023-03-06T12:48:02.827Z,5.93
2023-03-06T12:50:32.163Z,9.17
2023-03-06T12:53:03.294Z,8.10
2023-03-06T12:55:40.512Z,7.87
2023-03-06T12:58:36.623Z,10.60
2023-03-06T13:01:10.064Z,8.70
2023-03-06T13:03:55.448Z,8.23
2023-03-06T13:06:39.234Z,9.97
2023-03-06T13:09:19.612Z,7.90
2023-03-06T13:12:17.636Z,9.87
2023-03-06T13:14:55.215Z,8.70
2023-03-06T13:17:29.679Z,8.83
2023-03-06T13:20:43.325Z,10.93
2023-03-06T13:23:50.788Z,9.73
2023-03-06T13:26:50.703Z,7.00
2023-03-06T13:29:59.968Z,5.80
2023-03-06T13:32:35.498Z,8.27
2023-03-06T13:35:03.916Z,10.30
2023-03-06T13:37:51.545Z,14.17
2023-03-06T13:40:31.718Z,9.90
2023-03-06T13:43:30.473Z,7.60
2023-03-06T13:46:19.277Z,7.43
2023-03-06T13:49:05.620Z,6.30
2023-03-06T13:51:36.302Z,7.63
2023-03-06T13:54:22.610Z,7.13
2023-03-06T13:57:24.113Z,8.20
2023-03-06T14:00:10.306Z,5.03
2023-03-06T14:03:21.131Z,7.50
2023-03-06T14:05:51.527Z,6.97
2023-03-06T14:08:21.963Z,6.03
2023-03-06T14:11:01.554Z,5.73
2023-03-06T14:13:46.623Z,9.37
2023-03-06T14:16:20.286Z,5.00
2023-03-06T14:18:50.378Z,7.20
2023-03-06T14:21:30.712Z,6.90
2023-03-06T14:24:00.906Z,6.47
2023-03-06T14:26:33.553Z,5.27
2023-03-06T14:29:03.550Z,4.33
2023-03-06T14:31:33.356Z,8.33
2023-03-06T14:34:03.651Z,5.57
2023-03-06T14:36:36.807Z,5.60
2023-03-06T14:39:11.864Z,4.87
2023-03-06T14:41:39.875Z,4.83
2023-03-06T14:44:17.989Z,6.93
2023-03-06T14:46:46.754Z,12.07
2023-03-06T14:49:15.784Z,5.03
2023-03-06T14:51:46.951Z,8.07
2023-03-06T14:54:19.790Z,4.40
2023-03-06T14:56:49.945Z,5.20
2023-03-06T14:59:21.594Z,6.63
2023-03-06T15:01:51.838Z,5.70
2023-03-06T15:04:27.250Z,5.00
2023-03-06T15:06:58.083Z,5.63
2023-03-06T15:09:29.010Z,4.60
2023-03-06T15:11:59.429Z,4.00
2023-03-06T15:14:34.040Z,5.23
2023-03-06T15:17:23.770Z,5.53
2023-03-06T15:19:54.196Z,7.83
2023-03-06T15:22:28.544Z,6.30
2023-03-06T15:25:15.506Z,5.33
2023-03-06T15:27:50.072Z,6.60
2023-03-06T15:30:31.434Z,3.80
2023-03-06T15:33:25.224Z,4.97
2023-03-06T15:35:55.248Z,5.23
2023-03-06T15:38:33.818Z,5.93
2023-03-06T15:41:05.297Z,4.93
2023-03-06T15:43:36.139Z,4.83
2023-03-06T15:46:07.426Z,4.83
2023-03-06T15:48:35.308Z,4.83
2023-03-06T15:51:03.815Z,5.13
2023-03-06T15:53:32.816Z,5.70
2023-03-06T15:56:00.626Z,3.33
2023-03-06T15:58:31.022Z,3.80
2023-03-06T16:00:59.080Z,6.63
2023-03-06T16:03:26.674Z,3.53
2023-03-06T16:05:54.671Z,4.80
2023-03-06T16:08:22.322Z,6.17
2023-03-06T16:10:52.487Z,4.27
2023-03-06T16:13:25.713Z,8.67
2023-03-06T16:15:54.314Z,3.23
2023-03-06T16:18:22.457Z,3.23
2023-03-06T16:20:51.162Z,4.33
2023-03-06T16:23:18.762Z,3.97
2023-03-06T16:25:49.978Z,3.80
2023-03-06T16:28:18.928Z,2.87
2023-03-06T16:30:46.780Z,4.17
2023-03-06T16:33:14.604Z,3.47
2023-03-06T16:35:44.562Z,3.70
2023-03-06T16:38:12.213Z,9.07
2023-03-06T16:40:41.354Z,2.87
2023-03-06T16:43:10.422Z,3.23
2023-03-06T16:45:41.594Z,3.37
2023-03-06T16:48:15.733Z,4.60
2023-03-06T16:50:43.876Z,3.83
2023-03-06T16:53:11.510Z,3.67
2023-03-06T16:55:39.320Z,5.17
2023-03-06T16:58:08.561Z,3.53
2023-03-06T17:00:36.337Z,3.43
2023-03-06T17:03:05.500Z,2.83
2023-03-06T17:05:34.998Z,3.23
2023-03-06T17:08:03.065Z,3.67
2023-03-06T17:10:30.638Z,3.60
2023-03-06T17:12:58.687Z,4.00
2023-03-06T17:15:26.284Z,2.50
2023-03-06T17:17:54.679Z,4.80
2023-03-06T17:20:23.832Z,1.73
2023-03-06T17:22:51.826Z,3.37
2023-03-06T17:25:19.654Z,4.40
2023-03-06T17:27:47.750Z,2.43
2023-03-06T17:30:15.979Z,15.40
2023-03-06T17:32:43.940Z,10.77
2023-03-06T17:35:11.557Z,8.00
2023-03-06T17:37:40.556Z,3.63
2023-03-06T17:40:10.487Z,4.27
2023-03-06T17:42:38.094Z,3.23
2023-03-06T17:45:09.117Z,3.87
2023-03-06T17:47:37.134Z,4.40
2023-03-06T17:50:05.541Z,3.67
2023-03-06T17:52:33.425Z,4.97
2023-03-06T17:55:02.388Z,5.00
2023-03-06T17:57:30.513Z,3.67
2023-03-06T17:59:58.305Z,4.37
2023-03-06T18:02:26.291Z,3.43
2023-03-06T18:04:56.737Z,4.97
2023-03-06T18:07:24.770Z,4.67
2023-03-06T18:09:52.350Z,5.00
2023-03-06T18:12:21.613Z,4.20
2023-03-06T18:14:50.638Z,4.97
2023-03-06T18:17:18.410Z,4.63
2023-03-06T18:19:46.456Z,3.87
2023-03-06T18:22:14.085Z,4.53
2023-03-06T18:24:41.718Z,5.13
2023-03-06T18:27:09.694Z,3.97
2023-03-06T18:29:38.681Z,4.37
2023-03-06T18:32:07.104Z,5.27
2023-03-06T18:34:35.098Z,3.90
2023-03-06T18:37:03.037Z,4.07
2023-03-06T18:39:30.660Z,4.87
2023-03-06T18:41:58.236Z,4.27
2023-03-06T18:44:25.954Z,3.40
2023-03-06T18:46:54.893Z,5.50
2023-03-06T18:49:23.057Z,3.57
2023-03-06T18:51:50.886Z,4.50
2023-03-06T18:54:18.987Z,3.93
2023-03-06T18:56:46.589Z,4.33
2023-03-06T18:59:18.638Z,3.63
2023-03-06T19:01:48.118Z,4.17
2023-03-06T19:04:17.604Z,4.67
2023-03-06T19:06:45.199Z,4.37
2023-03-06T19:09:12.997Z,3.80
2023-03-06T19:11:40.689Z,4.17
2023-03-06T19:14:08.615Z,3.73
2023-03-06T19:16:36.610Z,4.40
2023-03-06T19:19:04.574Z,5.07
2023-03-06T19:21:33.718Z,5.50
2023-03-06T19:24:03.110Z,6.33
2023-03-06T19:26:30.730Z,5.20
2023-03-06T19:28:58.697Z,8.47
2023-03-06T19:31:28.412Z,5.50
2023-03-06T19:33:57.639Z,4.83
2023-03-06T19:36:27.587Z,4.40
2023-03-06T19:38:58.282Z,5.70
2023-03-06T19:41:26.433Z,4.97
2023-03-06T19:43:55.860Z,5.27
2023-03-06T19:46:24.486Z,4.50
2023-03-06T19:48:55.993Z,4.53
2023-03-06T19:51:23.926Z,5.03
2023-03-06T19:53:51.577Z,4.17
2023-03-06T19:56:23.045Z,4.43
2023-03-06T19:58:50.695Z,6.53
2023-03-06T20:01:20.442Z,4.30
2023-03-06T20:03:50.500Z,4.50
2023-03-06T20:06:20.635Z,5.60
2023-03-06T20:08:49.013Z,4.70
2023-03-06T20:11:18.073Z,4.50
2023-03-06T20:13:47.758Z,4.23
2023-03-06T20:16:15.626Z,9.57
2023-03-06T20:18:43.440Z,5.60
2023-03-06T20:21:11.760Z,4.93
2023-03-06T20:23:39.388Z,5.50
2023-03-06T20:26:09.963Z,5.43
2023-03-06T20:28:39.237Z,6.30
2023-03-06T20:31:09.790Z,5.37
2023-03-06T20:33:37.842Z,6.60
2023-03-06T20:36:12.138Z,4.93
2023-03-06T20:38:40.046Z,6.53
2023-03-06T20:41:08.841Z,6.03
2023-03-06T20:43:36.511Z,6.47
2023-03-06T20:46:05.956Z,4.80
2023-03-06T20:48:35.088Z,5.07
2023-03-06T20:51:04.897Z,6.87
2023-03-06T20:53:32.797Z,5.47
2023-03-06T20:56:00.681Z,7.90
2023-03-06T20:58:30.099Z,6.40
2023-03-06T21:01:00.312Z,5.33
2023-03-06T21:03:29.206Z,6.80
2023-03-06T21:05:58.350Z,5.83
2023-03-06T21:08:25.938Z,6.30
2023-03-06T21:10:53.878Z,6.63
2023-03-06T21:13:21.758Z,6.57
2023-03-06T21:15:49.973Z,6.10
2023-03-06T21:18:17.712Z,5.13
2023-03-06T21:20:45.598Z,7.60
2023-03-06T21:23:14.945Z,6.03
2023-03-06T21:25:48.784Z,6.07
2023-03-06T21:28:16.497Z,8.40
2023-03-06T21:30:44.494Z,5.20
2023-03-06T21:33:12.837Z,5.83
2023-03-06T21:35:41.583Z,5.93
2023-03-06T21:38:09.230Z,4.17
2023-03-06T21:40:38.505Z,6.37
2023-03-06T21:43:06.328Z,4.73
2023-03-06T21:45:34.036Z,5.80
2023-03-06T21:48:01.806Z,6.43
2023-03-06T21:50:29.741Z,5.37
2023-03-06T21:52:57.786Z,6.00
2023-03-06T21:55:25.392Z,5.30
2023-03-06T21:57:56.300Z,6.57
2023-03-06T22:00:25.691Z,5.00
2023-03-06T22:02:53.970Z,6.47
2023-03-06T22:05:21.598Z,5.97
2023-03-06T22:07:49.420Z,5.23
2023-03-06T22:10:17.146Z,4.83
2023-03-06T22:12:46.085Z,6.10
2023-03-06T22:15:15.017Z,5.03
2023-03-06T22:17:42.770Z,5.77
2023-03-06T22:20:13.034Z,4.67
2023-03-06T22:22:41.136Z,6.17
2023-03-06T22:25:10.183Z,5.83
2023-03-06T22:27:38.634Z,6.37
2023-03-06T22:30:08.182Z,6.53
2023-03-06T22:32:37.665Z,5.83
2023-03-06T22:35:06.076Z,7.53
2023-03-06T22:37:33.684Z,6.10
2023-03-06T22:40:01.574Z,7.87
2023-03-06T22:42:29.825Z,6.20
2023-03-06T22:44:57.409Z,6.33
2023-03-06T22:47:25.192Z,7.30
2023-03-06T22:49:54.104Z,10.70
2023-03-06T22:52:21.719Z,6.80
2023-03-06T22:54:49.312Z,6.50
2023-03-06T22:57:17.473Z,7.93
2023-03-06T22:59:45.078Z,5.63
2023-03-06T23:02:13.693Z,8.33
2023-03-06T23:04:41.336Z,6.63
2023-03-06T23:07:10.953Z,7.27
2023-03-06T23:09:38.633Z,6.77
2023-03-06T23:12:25.580Z,7.70
2023-03-06T23:15:12.916Z,7.93
2023-03-06T23:17:59.395Z,8.73
2023-03-06T23:20:46.043Z,7.40
2023-03-06T23:23:34.364Z,6.80
2023-03-06T23:26:02.290Z,8.03
2023-03-06T23:28:31.375Z,7.73
2023-03-06T23:30:59.000Z,7.47
2023-03-06T23:33:27.094Z,6.27
2023-03-06T23:35:54.800Z,7.20
2023-03-06T23:38:23.283Z,6.53
2023-03-06T23:40:52.236Z,7.40
2023-03-06T23:43:19.860Z,7.37
2023-03-06T23:45:53.556Z,7.27
2023-03-06T23:48:22.067Z,5.93
2023-03-06T23:50:49.685Z,8.77
2023-03-06T23:53:18.215Z,8.67
2023-03-06T23:55:47.440Z,7.67
2023-03-06T23:58:18.029Z,7.80
